Terminal Aerodrome Forecast
Issued by NWS Sterling, VA

Home | Current Version | Previous Version | Text Only | Print | Product List | Glossary On
Versions: 1 2 3 4 5 6 7 8 9 10 11 12 13 14 15 16 17 18 19 20 21 22 23 24 25 26 27 28 29
000
FTUS41 KLWX 190500
TAFBWI
TAF
KBWI 190538Z 1906/2012 29007KT P6SM BKN050 OVC100
     FM191300 30007KT P6SM FEW040 SCT080
     FM191600 31011G17KT P6SM FEW040 SCT250
     FM200900 VRB03KT P6SM FEW250=

USA.gov is the U.S. government's official web portal to all federal, state and local government web resources and services.